createdAt,value
2022-09-30T00:01:07.204Z,4.37
2022-09-30T00:03:33.823Z,4.70
2022-09-30T00:06:08.764Z,4.40
2022-09-30T00:08:37.498Z,3.83
2022-09-30T00:11:08.695Z,4.70
2022-09-30T00:13:37.385Z,4.80
2022-09-30T00:16:05.114Z,4.53
2022-09-30T00:18:32.368Z,4.80
2022-09-30T00:20:59.668Z,4.37
2022-09-30T00:23:26.722Z,5.60
2022-09-30T00:25:59.356Z,4.97
2022-09-30T00:28:27.359Z,5.67
2022-09-30T00:30:55.076Z,5.33
2022-09-30T00:33:21.748Z,5.90
2022-09-30T00:35:48.382Z,4.83
2022-09-30T00:38:15.193Z,6.03
2022-09-30T00:40:41.802Z,5.43
2022-09-30T00:43:15.235Z,5.93
2022-09-30T00:45:54.675Z,5.30
2022-09-30T00:48:29.293Z,7.13
2022-09-30T00:50:56.216Z,6.20
2022-09-30T00:53:29.719Z,6.00
2022-09-30T00:56:10.235Z,6.10
2022-09-30T00:58:42.918Z,7.07
2022-09-30T01:01:10.163Z,6.50
2022-09-30T01:03:41.538Z,6.47
2022-09-30T01:06:08.969Z,6.70
2022-09-30T01:08:39.232Z,6.60
2022-09-30T01:11:08.301Z,7.20
2022-09-30T01:13:37.044Z,6.63
2022-09-30T01:16:09.622Z,6.97
2022-09-30T01:19:02.450Z,6.77
2022-09-30T01:22:02.599Z,6.60
2022-09-30T01:24:47.740Z,7.10
2022-09-30T01:27:53.730Z,6.50
2022-09-30T01:30:51.990Z,8.00
2022-09-30T01:33:56.002Z,8.43
2022-09-30T01:36:48.783Z,7.40
2022-09-30T01:39:37.510Z,7.27
2022-09-30T01:42:10.142Z,7.57
2022-09-30T01:44:48.400Z,7.60
2022-09-30T01:47:22.466Z,6.67
2022-09-30T01:50:14.661Z,7.47
2022-09-30T01:52:54.399Z,8.30
2022-09-30T01:55:44.614Z,6.60
2022-09-30T01:58:30.370Z,7.40
2022-09-30T02:01:01.074Z,7.60
2022-09-30T02:03:37.081Z,8.23
2022-09-30T02:06:12.135Z,6.50
2022-09-30T02:08:47.512Z,7.87
2022-09-30T02:11:25.244Z,7.13
2022-09-30T02:14:06.459Z,7.83
2022-09-30T02:16:39.945Z,7.73
2022-09-30T02:19:23.222Z,7.40
2022-09-30T02:22:00.565Z,8.00
2022-09-30T02:24:32.997Z,8.30
2022-09-30T02:27:02.991Z,7.70
2022-09-30T02:29:34.704Z,7.50
2022-09-30T02:32:15.244Z,8.30
2022-09-30T02:34:51.115Z,7.87
2022-09-30T02:37:24.308Z,7.70
2022-09-30T02:40:03.365Z,7.70
2022-09-30T02:42:30.985Z,8.40
2022-09-30T02:45:07.820Z,9.20
2022-09-30T02:47:40.326Z,8.57
2022-09-30T02:50:31.538Z,8.67
2022-09-30T02:53:19.435Z,8.33
2022-09-30T02:56:11.572Z,9.40
2022-09-30T02:58:39.729Z,8.57
2022-09-30T03:01:12.307Z,9.47
2022-09-30T03:03:53.815Z,8.77
2022-09-30T03:06:21.347Z,8.60
2022-09-30T03:08:48.419Z,9.30
2022-09-30T03:11:20.615Z,8.30
2022-09-30T03:14:13.715Z,8.77
2022-09-30T03:17:14.946Z,9.50
2022-09-30T03:19:54.292Z,9.03
2022-09-30T03:22:37.827Z,9.33
2022-09-30T03:25:32.719Z,9.90
2022-09-30T03:28:30.049Z,9.80
2022-09-30T03:31:05.616Z,9.70
2022-09-30T03:33:49.109Z,9.73
2022-09-30T03:36:27.142Z,8.83
2022-09-30T03:39:19.863Z,8.60
2022-09-30T03:42:08.078Z,9.47
2022-09-30T03:44:54.587Z,9.80
2022-09-30T03:47:22.863Z,8.47
2022-09-30T03:49:55.828Z,9.23
2022-09-30T03:52:26.136Z,8.20
2022-09-30T03:54:59.419Z,8.77
2022-09-30T03:57:29.374Z,8.90
2022-09-30T03:59:59.709Z,9.60
2022-09-30T04:02:27.723Z,9.80
2022-09-30T04:04:54.458Z,8.40
2022-09-30T04:07:21.156Z,10.20
2022-09-30T04:09:47.841Z,9.77
2022-09-30T04:12:14.538Z,7.87
2022-09-30T04:14:42.102Z,9.20
2022-09-30T04:17:08.815Z,8.87
2022-09-30T04:19:39.868Z,8.90
2022-09-30T04:22:09.709Z,8.20
2022-09-30T04:24:36.679Z,9.07
2022-09-30T04:27:03.667Z,9.83
2022-09-30T04:29:30.672Z,9.27
2022-09-30T04:31:57.545Z,9.00
2022-09-30T04:34:24.258Z,9.13
2022-09-30T04:36:50.893Z,9.07
2022-09-30T04:39:17.609Z,9.87
2022-09-30T04:41:44.257Z,9.90
2022-09-30T04:44:10.848Z,9.47
2022-09-30T04:46:37.556Z,9.80
2022-09-30T04:49:09.054Z,10.93
2022-09-30T04:51:36.658Z,10.83
2022-09-30T04:54:03.607Z,10.37
2022-09-30T04:56:30.629Z,12.37
2022-09-30T04:58:57.444Z,13.53
2022-09-30T05:01:24.285Z,11.87
2022-09-30T05:03:51.149Z,12.83
2022-09-30T05:06:18.008Z,12.20
2022-09-30T05:08:45.999Z,13.27
2022-09-30T05:11:18.915Z,14.40
2022-09-30T05:13:46.619Z,15.10
2022-09-30T05:16:14.489Z,12.80
2022-09-30T05:18:45.538Z,13.17
2022-09-30T05:21:17.569Z,13.30
2022-09-30T05:23:44.318Z,14.17
2022-09-30T05:26:12.496Z,11.90
2022-09-30T05:28:40.892Z,12.27
2022-09-30T05:31:07.909Z,13.30
2022-09-30T05:33:35.760Z,12.90
2022-09-30T05:36:05.408Z,13.70
2022-09-30T05:38:32.186Z,14.20
2022-09-30T05:40:59.119Z,12.63
2022-09-30T05:43:25.827Z,12.50
2022-09-30T05:45:54.231Z,13.67
2022-09-30T05:48:21.323Z,14.00
2022-09-30T05:50:50.515Z,13.80
2022-09-30T05:53:20.058Z,11.93
2022-09-30T05:55:47.741Z,14.30
2022-09-30T05:58:15.373Z,12.23
2022-09-30T06:00:43.478Z,14.30
2022-09-30T06:03:10.580Z,12.37
2022-09-30T06:05:37.414Z,12.40
2022-09-30T06:08:04.599Z,13.60
2022-09-30T06:10:31.220Z,12.50
2022-09-30T06:12:59.146Z,11.17
2022-09-30T06:15:26.930Z,12.33
2022-09-30T06:17:54.417Z,11.47
2022-09-30T06:20:21.347Z,13.50
2022-09-30T06:22:48.254Z,11.60
2022-09-30T06:25:14.871Z,11.00
2022-09-30T06:27:46.494Z,12.67
2022-09-30T06:30:14.522Z,11.53
2022-09-30T06:32:42.520Z,12.00
2022-09-30T06:35:10.450Z,12.10
2022-09-30T06:37:37.890Z,12.43
2022-09-30T06:40:05.706Z,11.80
2022-09-30T06:42:32.456Z,12.30
2022-09-30T06:44:59.144Z,11.50
2022-09-30T06:47:26.490Z,12.60
2022-09-30T06:49:58.402Z,12.20
2022-09-30T06:52:26.499Z,13.67
2022-09-30T06:54:56.589Z,12.47
2022-09-30T06:57:25.010Z,12.23
2022-09-30T06:59:52.133Z,11.90
2022-09-30T07:02:19.074Z,12.47
2022-09-30T07:04:45.922Z,12.30
2022-09-30T07:07:12.851Z,12.50
2022-09-30T07:09:39.601Z,11.73
2022-09-30T07:12:09.008Z,13.07
2022-09-30T07:14:37.014Z,10.57
2022-09-30T07:17:04.565Z,14.57
2022-09-30T07:19:32.161Z,10.93
2022-09-30T07:22:18.763Z,13.50
2022-09-30T07:24:45.422Z,11.20
2022-09-30T07:27:13.586Z,10.20
2022-09-30T07:30:07.788Z,11.13
2022-09-30T07:32:31.224Z,10.90
2022-09-30T07:34:58.023Z,10.00
2022-09-30T07:37:26.296Z,9.40
2022-09-30T07:39:53.530Z,9.70
2022-09-30T07:42:22.762Z,9.23
2022-09-30T07:44:53.021Z,8.77
2022-09-30T07:47:20.455Z,9.07
2022-09-30T07:49:47.484Z,9.33
2022-09-30T07:52:15.094Z,8.40
2022-09-30T07:54:46.760Z,9.37
2022-09-30T07:57:16.322Z,10.00
2022-09-30T07:59:43.827Z,8.10
2022-09-30T08:02:18.729Z,8.47
2022-09-30T08:04:45.693Z,7.20
2022-09-30T08:07:15.178Z,7.93
2022-09-30T08:09:42.221Z,8.80
2022-09-30T08:12:09.500Z,8.10
2022-09-30T08:14:36.122Z,8.00
2022-09-30T08:17:02.880Z,8.90
2022-09-30T08:19:31.220Z,9.23
2022-09-30T08:21:57.996Z,8.00
2022-09-30T08:24:26.498Z,7.30
2022-09-30T08:26:54.240Z,6.90
2022-09-30T08:29:42.409Z,7.40
2022-09-30T08:32:08.447Z,7.20
2022-09-30T08:34:35.650Z,5.80
2022-09-30T08:37:07.832Z,5.30
2022-09-30T08:39:35.788Z,5.70
2022-09-30T08:42:37.691Z,4.83
2022-09-30T08:45:19.599Z,5.27
2022-09-30T08:48:08.385Z,4.87
2022-09-30T08:50:56.751Z,5.10
2022-09-30T08:53:27.773Z,4.83
2022-09-30T08:55:57.901Z,4.80
2022-09-30T08:58:38.495Z,5.00
2022-09-30T09:01:32.070Z,4.00
2022-09-30T09:04:00.178Z,4.40
2022-09-30T09:06:39.304Z,4.40
2022-09-30T09:09:05.932Z,4.63
2022-09-30T09:12:00.349Z,5.50
2022-09-30T09:14:44.777Z,3.50
2022-09-30T09:17:31.888Z,4.00
2022-09-30T09:20:09.913Z,3.90
2022-09-30T09:22:37.961Z,3.60
2022-09-30T09:25:05.420Z,3.67
2022-09-30T09:27:53.931Z,3.30
2022-09-30T09:30:23.518Z,6.10
2022-09-30T09:32:55.169Z,3.40
2022-09-30T09:35:40.725Z,4.07
2022-09-30T09:38:35.782Z,3.97
2022-09-30T09:41:12.893Z,3.77
2022-09-30T09:44:17.934Z,3.33
2022-09-30T09:46:48.914Z,3.67
2022-09-30T09:49:20.896Z,2.90
2022-09-30T09:51:58.483Z,3.27
2022-09-30T09:54:30.987Z,3.20
2022-09-30T09:57:09.219Z,3.77
2022-09-30T09:59:36.830Z,3.27
2022-09-30T10:02:21.539Z,3.30
2022-09-30T10:05:00.020Z,3.23
2022-09-30T10:07:29.038Z,3.50
2022-09-30T10:10:22.367Z,3.70
2022-09-30T10:12:50.456Z,3.10
2022-09-30T10:15:24.103Z,3.00
2022-09-30T10:17:56.800Z,3.57
2022-09-30T10:20:31.363Z,3.30
2022-09-30T10:23:19.984Z,3.70
2022-09-30T10:25:56.459Z,3.70
2022-09-30T10:28:26.656Z,3.50
2022-09-30T10:31:03.557Z,4.00
2022-09-30T10:33:41.699Z,2.57
2022-09-30T10:36:11.714Z,3.90
2022-09-30T10:38:47.631Z,3.27
2022-09-30T10:41:22.156Z,3.77
2022-09-30T10:43:53.348Z,2.93
2022-09-30T10:46:27.198Z,3.40
2022-09-30T10:48:56.071Z,3.43
2022-09-30T10:51:34.046Z,2.70
2022-09-30T10:54:01.072Z,2.73
2022-09-30T10:56:43.320Z,2.90
2022-09-30T10:59:40.445Z,2.73
2022-09-30T11:02:27.223Z,2.30
2022-09-30T11:05:07.339Z,2.70
2022-09-30T11:08:00.680Z,2.00
2022-09-30T11:10:32.867Z,2.33
2022-09-30T11:13:27.386Z,1.90
2022-09-30T11:16:09.355Z,2.50
2022-09-30T11:18:47.345Z,2.23
2022-09-30T11:21:26.638Z,1.60
2022-09-30T11:24:02.334Z,2.63
2022-09-30T11:26:46.255Z,1.70
2022-09-30T11:29:26.970Z,1.37
2022-09-30T11:32:14.231Z,1.70
2022-09-30T11:34:56.033Z,1.60
2022-09-30T11:37:44.593Z,2.20
2022-09-30T11:40:35.405Z,2.03
2022-09-30T11:43:23.413Z,1.43
2022-09-30T11:46:08.894Z,1.73
2022-09-30T11:48:49.932Z,1.30
2022-09-30T11:51:19.418Z,1.80
2022-09-30T11:54:16.398Z,2.07
2022-09-30T11:57:04.284Z,1.73
2022-09-30T11:59:41.902Z,1.60
2022-09-30T12:02:37.413Z,2.03
2022-09-30T12:05:19.497Z,1.40
2022-09-30T12:08:03.142Z,2.70
2022-09-30T12:10:35.996Z,1.33
2022-09-30T12:13:18.832Z,1.80
2022-09-30T12:15:47.229Z,1.80
2022-09-30T12:18:17.735Z,1.70
2022-09-30T12:21:25.122Z,1.83
2022-09-30T12:24:02.491Z,1.93
2022-09-30T12:26:31.127Z,2.33
2022-09-30T12:29:23.740Z,2.50
2022-09-30T12:32:21.475Z,3.87
2022-09-30T12:35:09.609Z,2.90
2022-09-30T12:37:54.982Z,3.27
2022-09-30T12:40:59.725Z,3.83
2022-09-30T12:43:53.563Z,4.73
2022-09-30T12:46:45.265Z,3.53
2022-09-30T12:49:17.814Z,3.20
2022-09-30T12:51:48.786Z,3.17
2022-09-30T12:54:23.973Z,3.90
2022-09-30T12:56:55.366Z,4.00
2022-09-30T12:59:31.435Z,3.80
2022-09-30T13:02:00.269Z,4.60
2022-09-30T13:04:33.199Z,3.83
2022-09-30T13:06:59.766Z,3.13
2022-09-30T13:09:34.011Z,3.60
2022-09-30T13:12:00.762Z,3.70
2022-09-30T13:14:34.925Z,3.70
2022-09-30T13:17:01.602Z,3.40
2022-09-30T13:19:36.396Z,3.23
2022-09-30T13:22:18.284Z,3.63
2022-09-30T13:25:03.159Z,2.83
2022-09-30T13:27:43.600Z,3.40
2022-09-30T13:30:13.363Z,3.40
2022-09-30T13:32:46.037Z,2.70
2022-09-30T13:35:40.715Z,3.00
2022-09-30T13:38:16.408Z,3.10
2022-09-30T13:41:03.078Z,3.00
2022-09-30T13:43:52.071Z,3.70
2022-09-30T13:46:46.919Z,3.13
2022-09-30T13:49:21.143Z,2.93
2022-09-30T13:51:47.921Z,2.90
2022-09-30T13:54:31.945Z,2.70
2022-09-30T13:57:00.939Z,2.93
2022-09-30T13:59:37.281Z,3.20
2022-09-30T14:02:22.785Z,2.63
2022-09-30T14:05:19.038Z,2.90
2022-09-30T14:08:03.507Z,3.30
2022-09-30T14:11:05.681Z,3.67
2022-09-30T14:13:50.986Z,3.40
2022-09-30T14:16:53.710Z,3.60
2022-09-30T14:19:52.946Z,3.70
2022-09-30T14:22:20.531Z,3.93
2022-09-30T14:24:50.556Z,4.90
2022-09-30T14:27:57.447Z,5.40
2022-09-30T14:30:25.928Z,4.40
2022-09-30T14:33:01.855Z,4.30
2022-09-30T14:35:31.203Z,4.37
2022-09-30T14:38:05.439Z,4.20
2022-09-30T14:40:39.676Z,4.13
2022-09-30T14:43:09.536Z,4.00
2022-09-30T14:45:42.178Z,4.93
2022-09-30T14:48:18.510Z,4.70
2022-09-30T14:50:52.259Z,5.00
2022-09-30T14:53:33.660Z,4.80
2022-09-30T14:56:02.270Z,4.63
2022-09-30T14:58:42.239Z,4.43
2022-09-30T15:01:18.440Z,4.50
2022-09-30T15:03:52.504Z,3.87
2022-09-30T15:06:24.605Z,4.63
2022-09-30T15:08:59.924Z,4.40
2022-09-30T15:11:27.152Z,4.70
2022-09-30T15:14:18.454Z,4.13
2022-09-30T15:16:53.406Z,5.20
2022-09-30T15:19:23.389Z,5.90
2022-09-30T15:21:52.993Z,5.00
2022-09-30T15:24:22.676Z,4.80
2022-09-30T15:26:51.277Z,4.97
2022-09-30T15:29:18.535Z,3.60
2022-09-30T15:32:01.126Z,4.13
2022-09-30T15:34:28.765Z,3.90
2022-09-30T15:37:06.889Z,5.07
2022-09-30T15:39:55.801Z,6.33
2022-09-30T15:42:44.476Z,4.70
2022-09-30T15:45:18.602Z,5.20
2022-09-30T15:47:58.024Z,4.93
2022-09-30T15:50:39.951Z,4.80
2022-09-30T15:53:24.960Z,4.30
2022-09-30T15:55:55.538Z,5.13
2022-09-30T15:58:37.369Z,4.77
2022-09-30T16:01:21.651Z,4.90
2022-09-30T16:03:57.555Z,4.93
2022-09-30T16:06:35.623Z,4.30
2022-09-30T16:09:17.812Z,5.50
2022-09-30T16:11:59.257Z,5.23
2022-09-30T16:14:47.916Z,5.37
2022-09-30T16:17:27.478Z,5.97
2022-09-30T16:20:00.274Z,5.30
2022-09-30T16:22:40.446Z,5.37
2022-09-30T16:25:10.282Z,4.63
2022-09-30T16:27:37.786Z,5.07
2022-09-30T16:30:06.541Z,4.80
2022-09-30T16:32:38.844Z,4.67
2022-09-30T16:35:06.608Z,5.30
2022-09-30T16:37:33.321Z,5.10
2022-09-30T16:40:10.596Z,5.50
2022-09-30T16:42:37.256Z,5.93
2022-09-30T16:45:04.421Z,4.73
2022-09-30T16:47:31.082Z,5.40
2022-09-30T16:49:58.819Z,6.27
2022-09-30T16:52:26.148Z,5.40
2022-09-30T16:54:52.754Z,5.40
2022-09-30T16:57:19.479Z,5.57
2022-09-30T16:59:46.087Z,4.70
2022-09-30T17:02:14.671Z,6.07
2022-09-30T17:04:41.515Z,5.97
2022-09-30T17:07:12.117Z,5.20
2022-09-30T17:09:39.531Z,5.90
2022-09-30T17:12:06.190Z,6.50
2022-09-30T17:14:33.300Z,5.00
2022-09-30T17:16:59.951Z,6.10
2022-09-30T17:19:30.036Z,5.10
2022-09-30T17:21:56.736Z,5.73
2022-09-30T17:24:23.361Z,5.50
2022-09-30T17:26:50.804Z,6.00
2022-09-30T17:29:32.004Z,5.30
2022-09-30T17:31:59.358Z,5.27
2022-09-30T17:34:27.931Z,6.70
2022-09-30T17:36:56.159Z,5.30
2022-09-30T17:39:22.951Z,5.70
2022-09-30T17:42:08.073Z,6.20
2022-09-30T17:44:34.834Z,6.00
2022-09-30T17:47:01.943Z,5.13
2022-09-30T17:49:33.106Z,6.70
2022-09-30T17:51:59.897Z,7.00
2022-09-30T17:54:26.943Z,6.83
2022-09-30T17:56:54.243Z,7.43
2022-09-30T17:59:21.517Z,8.10
2022-09-30T18:01:50.509Z,7.67
2022-09-30T18:04:19.438Z,6.70
2022-09-30T18:06:46.467Z,8.20
2022-09-30T18:09:13.144Z,7.20
2022-09-30T18:11:43.721Z,8.27
2022-09-30T18:14:11.599Z,7.00
2022-09-30T18:16:38.589Z,7.50
2022-09-30T18:19:07.288Z,6.90
2022-09-30T18:21:36.660Z,9.13
2022-09-30T18:24:05.210Z,7.90
2022-09-30T18:26:35.638Z,7.43
2022-09-30T18:29:03.595Z,7.07
2022-09-30T18:31:37.217Z,6.13
2022-09-30T18:34:05.366Z,6.50
2022-09-30T18:36:32.770Z,6.20
2022-09-30T18:39:01.907Z,7.27
2022-09-30T18:41:30.534Z,5.80
2022-09-30T18:44:02.710Z,6.37
2022-09-30T18:46:32.407Z,5.93
2022-09-30T18:48:59.080Z,5.50
2022-09-30T18:51:25.772Z,6.43
2022-09-30T18:54:01.442Z,5.67
2022-09-30T18:56:31.745Z,5.37
2022-09-30T18:59:00.231Z,5.27
2022-09-30T19:01:27.748Z,5.77
2022-09-30T19:03:54.561Z,5.90
2022-09-30T19:06:21.732Z,5.10
2022-09-30T19:08:52.331Z,6.57
2022-09-30T19:11:18.998Z,5.87
2022-09-30T19:13:47.990Z,6.50
2022-09-30T19:16:18.740Z,6.50
2022-09-30T19:18:46.419Z,6.43
2022-09-30T19:21:16.066Z,6.30
2022-09-30T19:23:42.777Z,5.83
2022-09-30T19:26:13.234Z,6.17
2022-09-30T19:28:39.975Z,6.60
2022-09-30T19:31:12.135Z,5.43
2022-09-30T19:33:45.947Z,5.97
2022-09-30T19:36:16.633Z,5.30
2022-09-30T19:38:45.908Z,6.47
2022-09-30T19:41:15.445Z,4.50
2022-09-30T19:43:49.091Z,4.90
2022-09-30T19:46:16.123Z,4.77
2022-09-30T19:48:42.900Z,4.50
2022-09-30T19:51:16.779Z,5.10
2022-09-30T19:54:00.777Z,5.43
2022-09-30T19:56:31.084Z,4.90
2022-09-30T19:58:59.076Z,4.57
2022-09-30T20:01:30.454Z,5.00
2022-09-30T20:03:59.274Z,5.03
2022-09-30T20:06:28.000Z,4.57
2022-09-30T20:09:00.179Z,4.80
2022-09-30T20:11:29.848Z,5.47
2022-09-30T20:14:15.993Z,5.73
2022-09-30T20:16:47.486Z,5.33
2022-09-30T20:19:14.858Z,6.47
2022-09-30T20:21:42.038Z,4.93
2022-09-30T20:24:11.226Z,5.33
2022-09-30T20:26:39.182Z,5.27
2022-09-30T20:29:09.047Z,5.70
2022-09-30T20:31:37.858Z,5.53
2022-09-30T20:34:05.073Z,5.80
2022-09-30T20:36:32.154Z,12.40
2022-09-30T20:39:02.530Z,6.30
2022-09-30T20:41:37.825Z,5.80
2022-09-30T20:44:11.843Z,5.43
2022-09-30T20:46:41.026Z,5.43
2022-09-30T20:49:07.980Z,5.00
2022-09-30T20:51:35.130Z,6.50
2022-09-30T20:54:02.363Z,5.13
2022-09-30T20:56:44.509Z,6.07
2022-09-30T20:59:17.396Z,5.77
2022-09-30T21:01:44.200Z,4.60
2022-09-30T21:04:11.037Z,4.83
2022-09-30T21:06:37.754Z,5.40
2022-09-30T21:09:05.219Z,6.70
2022-09-30T21:11:32.199Z,6.90
2022-09-30T21:13:59.511Z,7.00
2022-09-30T21:16:26.635Z,5.37
2022-09-30T21:18:53.783Z,6.83
2022-09-30T21:21:22.930Z,8.40
2022-09-30T21:23:55.267Z,9.33
2022-09-30T21:26:21.991Z,5.83
2022-09-30T21:28:50.692Z,4.90
2022-09-30T21:31:22.716Z,5.77
2022-09-30T21:33:51.032Z,6.23
2022-09-30T21:36:18.382Z,7.03
2022-09-30T21:38:45.016Z,6.20
2022-09-30T21:41:11.656Z,6.70
2022-09-30T21:43:38.918Z,5.40
2022-09-30T21:46:08.237Z,5.37
2022-09-30T21:48:36.902Z,6.00
2022-09-30T21:51:05.379Z,9.57
2022-09-30T21:53:32.751Z,6.70
2022-09-30T21:56:01.249Z,5.60
2022-09-30T21:58:31.656Z,6.80
2022-09-30T22:01:03.615Z,7.10
2022-09-30T22:03:35.980Z,6.27
2022-09-30T22:06:03.485Z,6.10
2022-09-30T22:08:36.380Z,6.40
2022-09-30T22:11:08.217Z,5.67
2022-09-30T22:13:34.871Z,6.00
2022-09-30T22:16:07.111Z,5.80
2022-09-30T22:18:34.141Z,7.17
2022-09-30T22:21:10.162Z,6.33
2022-09-30T22:23:36.927Z,6.23
2022-09-30T22:26:10.972Z,8.73
2022-09-30T22:28:39.318Z,11.70
2022-09-30T22:31:19.531Z,9.13
2022-09-30T22:34:06.125Z,7.33
2022-09-30T22:36:51.556Z,5.60
2022-09-30T22:39:18.503Z,5.70
2022-09-30T22:41:45.092Z,8.03
2022-09-30T22:44:11.888Z,6.00
2022-09-30T22:46:39.609Z,6.00
2022-09-30T22:49:07.062Z,11.80
2022-09-30T22:51:34.148Z,9.73
2022-09-30T22:54:03.471Z,6.50
2022-09-30T22:56:33.022Z,6.03
2022-09-30T22:59:00.582Z,6.07
2022-09-30T23:01:31.865Z,9.30
2022-09-30T23:03:58.933Z,6.87
2022-09-30T23:06:25.822Z,7.03
2022-09-30T23:08:54.404Z,5.97
2022-09-30T23:11:23.151Z,13.70
2022-09-30T23:13:52.517Z,6.90
2022-09-30T23:16:21.146Z,8.30
2022-09-30T23:18:48.177Z,6.90
2022-09-30T23:21:18.214Z,9.00
2022-09-30T23:23:46.316Z,5.80
2022-09-30T23:26:14.337Z,6.33
2022-09-30T23:28:41.701Z,5.80
2022-09-30T23:31:11.236Z,11.73
2022-09-30T23:33:39.835Z,9.87
2022-09-30T23:36:07.527Z,6.73
2022-09-30T23:38:34.255Z,4.40
2022-09-30T23:41:00.873Z,5.60
2022-09-30T23:43:32.411Z,3.60
2022-09-30T23:45:59.085Z,4.20
2022-09-30T23:48:26.627Z,6.67
2022-09-30T23:50:54.133Z,6.27
2022-09-30T23:53:22.470Z,7.10
2022-09-30T23:55:55.542Z,14.07
2022-09-30T23:58:23.423Z,5.60
